Airfield :
LOGIN :

Register | Disclaimer

   EN    FR    IT 

 










Legend :    VFR   Marginal VFR   IFR   Intensive IFR   Very Intensive IFR
Visi :
Ceiling :
>= 8 km
>= 3000ft
5 to 8 km
1000 to 3000 ft
1500m to 5 km
500 to 1000 ft
800 to 1500m
200 to 500 ft
< 800m
< 200 ft
Symbols :   Thunderstorms  Fog  Heavy snow  Heavy precipitations  Wind > 20 kt
SIGMETs :     Misc.  Thunderstorms  Icing  Turbulence  Mountain Waves  Volcanic Ashes






- Airport Elevation : 286 ft
- IATA code : FFD


EGVA - RAF Fairford

CURRENT METAR :
  • 061756Z AUTO 26012KT 9999 SCT085 13/09 A2952 RMK AO2 SLP000 60004 T01300085 10149 20114 53015 $

EXPIRED METARs :
  • 061656Z AUTO 29008KT 9999 FEW033 SCT048 SCT060 BKN080 OVC095 12/08 A2950 RMK AO2 PK WND 28033/30 RAB31E47DZB47E49 SLP994 P0001 T01210080 $
  • 061649Z AUTO 29008KT 9999 FEW035 SCT048 BKN060 BKN075 BKN095 12/08 A2949 RMK AO2 RAB31E47DZB47E49 SLP991 $
  • 061632Z AUTO 32017G23KT 9999 -RA FEW027 SCT037 BKN048 BKN065 15/08 A2950 RMK AO2 WSHFT 20 RAB31 SLP993 $
  • 061556Z AUTO 27014KT 9999 BKN065 14/10 A2947 RMK AO2 RAB04E05DZB05E06RAB06E34 SLP983 P0001 T01380104 $
  • 061535Z AUTO 26014KT 9999 SCT041 BKN050 OVC060 13/11 A2947 RMK AO2 LTG DSNT NE RAB04E05DZB05E06RAB06E34 SLP983 $

Expired Forecast.



MET'MAP, your aeronautical weather chart ! - Copyright ORBIFLY December 2007 - Disclaimer

ORBIFLY MET'MAP TEAM :

Programming & Development : Alexandra Zaïnal
Concept & original design : Baudouin d'Aumeries
Assistance for programming : Marc-Olivier Méhu
Technical & hardware support : Manuel Goepfert

Contact : metmap@orbifly.com




SOURCES & CREDITS :

   NOAA